createdAt,value
2019-02-18T00:01:55.438Z,53.23
2019-02-18T00:04:26.399Z,51.40
2019-02-18T00:06:57.070Z,53.53
2019-02-18T00:09:27.769Z,52.67
2019-02-18T00:11:58.452Z,54.23
2019-02-18T00:14:29.151Z,48.33
2019-02-18T00:16:59.806Z,52.83
2019-02-18T00:19:30.579Z,54.03
2019-02-18T00:22:01.282Z,54.10
2019-02-18T00:24:31.995Z,53.17
2019-02-18T00:27:02.718Z,55.20
2019-02-18T00:29:33.438Z,51.37
2019-02-18T00:32:04.150Z,55.47
2019-02-18T00:34:34.975Z,54.53
2019-02-18T00:37:05.616Z,53.50
2019-02-18T00:39:46.227Z,56.63
2019-02-18T00:42:28.340Z,55.17
2019-02-18T00:45:09.660Z,60.40
2019-02-18T00:47:48.134Z,55.20
2019-02-18T00:50:19.206Z,54.13
2019-02-18T00:52:50.433Z,51.57
2019-02-18T00:55:21.123Z,52.20
2019-02-18T00:57:52.549Z,54.13
2019-02-18T01:00:23.306Z,48.73
2019-02-18T01:02:53.995Z,58.40
2019-02-18T01:05:24.696Z,54.60
2019-02-18T01:07:55.544Z,57.50
2019-02-18T01:10:26.259Z,59.30
2019-02-18T01:12:56.918Z,57.80
2019-02-18T01:15:27.540Z,63.73
2019-02-18T01:17:58.381Z,53.17
2019-02-18T01:20:29.066Z,54.60
2019-02-18T01:22:59.752Z,59.13
2019-02-18T01:25:30.469Z,60.33
2019-02-18T01:28:01.157Z,59.30
2019-02-18T01:30:31.860Z,66.90
2019-02-18T01:33:02.492Z,60.63
2019-02-18T01:35:33.154Z,62.83
2019-02-18T01:38:05.960Z,61.50
2019-02-18T01:40:36.664Z,68.77
2019-02-18T01:43:07.313Z,61.57
2019-02-18T01:45:38.800Z,58.97
2019-02-18T01:48:09.457Z,60.73
2019-02-18T01:50:40.231Z,60.37
2019-02-18T01:53:10.843Z,56.77
2019-02-18T01:55:41.685Z,60.27
2019-02-18T01:58:12.477Z,58.60
2019-02-18T02:00:44.716Z,63.07
2019-02-18T02:03:15.428Z,57.33
2019-02-18T02:05:46.044Z,61.63
2019-02-18T02:08:16.695Z,55.80
2019-02-18T02:10:47.354Z,53.07
2019-02-18T02:13:30.347Z,58.70
2019-02-18T02:16:03.021Z,61.03
2019-02-18T02:18:33.746Z,59.33
2019-02-18T02:21:04.520Z,57.07
2019-02-18T02:23:35.316Z,56.57
2019-02-18T02:26:06.044Z,58.47
2019-02-18T02:28:36.937Z,58.80
2019-02-18T02:31:07.754Z,60.53
2019-02-18T02:33:41.311Z,59.03
2019-02-18T02:36:11.945Z,55.70
2019-02-18T02:38:42.866Z,57.87
2019-02-18T02:41:13.504Z,62.53
2019-02-18T02:43:45.157Z,62.80
2019-02-18T02:46:15.823Z,53.67
2019-02-18T02:48:47.842Z,62.50
2019-02-18T02:51:19.090Z,62.73
2019-02-18T02:53:49.817Z,59.83
2019-02-18T02:56:20.520Z,59.97
2019-02-18T02:58:51.199Z,58.33
2019-02-18T03:01:23.962Z,56.87
2019-02-18T03:03:54.712Z,55.93
2019-02-18T03:06:25.418Z,61.37
2019-02-18T03:08:56.069Z,62.90
2019-02-18T03:11:26.746Z,59.23
2019-02-18T03:13:57.405Z,57.20
2019-02-18T03:16:28.039Z,57.27
2019-02-18T03:18:58.761Z,63.77
2019-02-18T03:21:29.383Z,63.13
2019-02-18T03:24:00.149Z,58.23
2019-02-18T03:26:31.664Z,60.83
2019-02-18T03:30:42.713Z,59.73
2019-02-18T03:33:15.734Z,59.17
2019-02-18T03:35:46.424Z,62.43
2019-02-18T03:38:17.097Z,58.77
2019-02-18T03:40:47.722Z,58.90
2019-02-18T03:43:18.403Z,64.10
2019-02-18T03:45:49.185Z,58.80
2019-02-18T03:48:20.025Z,62.20
2019-02-18T03:50:50.666Z,60.00
2019-02-18T03:53:21.337Z,65.53
2019-02-18T03:55:52.237Z,62.83
2019-02-18T03:58:22.930Z,60.10
2019-02-18T04:00:53.658Z,57.43
2019-02-18T04:03:24.343Z,62.07
2019-02-18T04:05:55.081Z,53.87
2019-02-18T04:08:25.725Z,61.17
2019-02-18T04:10:56.401Z,63.80
2019-02-18T04:13:27.035Z,62.23
2019-02-18T04:15:57.865Z,68.30
2019-02-18T04:18:28.563Z,66.70
2019-02-18T04:20:59.305Z,105.70
2019-02-18T04:23:29.999Z,163.93
2019-02-18T04:26:00.673Z,135.27
2019-02-18T04:28:31.316Z,107.47
2019-02-18T04:31:02.072Z,86.43
2019-02-18T04:33:32.714Z,74.00
2019-02-18T04:36:03.414Z,70.83
2019-02-18T04:38:34.229Z,66.30
2019-02-18T04:41:05.064Z,73.97
2019-02-18T04:43:36.216Z,93.10
2019-02-18T04:46:06.922Z,97.90
2019-02-18T04:48:38.480Z,106.03
2019-02-18T04:51:09.224Z,98.30
2019-02-18T04:53:42.178Z,89.23
2019-02-18T04:56:12.828Z,73.87
2019-02-18T04:58:43.488Z,68.20
2019-02-18T05:01:14.172Z,69.00
2019-02-18T05:03:48.368Z,56.73
2019-02-18T05:06:19.054Z,67.27
2019-02-18T05:08:49.756Z,66.80
2019-02-18T05:11:21.215Z,59.77
2019-02-18T05:13:51.876Z,109.23
2019-02-18T05:16:22.519Z,151.70
2019-02-18T05:18:54.032Z,296.87
2019-02-18T05:21:25.551Z,319.63
2019-02-18T05:23:56.269Z,249.43
2019-02-18T05:26:26.929Z,213.80
2019-02-18T05:28:57.664Z,169.53
2019-02-18T05:31:28.311Z,133.90
2019-02-18T05:33:59.010Z,151.20
2019-02-18T05:36:29.850Z,252.37
2019-02-18T05:39:00.701Z,172.63
2019-02-18T05:41:31.584Z,132.73
2019-02-18T05:44:02.302Z,84.33
2019-02-18T05:46:33.570Z,80.10
2019-02-18T05:49:04.230Z,70.67
2019-02-18T05:51:35.727Z,69.33
2019-02-18T05:54:06.410Z,67.20
2019-02-18T05:56:37.615Z,60.23
2019-02-18T05:59:08.311Z,64.33
2019-02-18T06:01:39.107Z,58.20
2019-02-18T06:04:09.748Z,56.90
2019-02-18T06:06:41.714Z,59.33
2019-02-18T06:09:12.437Z,53.93
2019-02-18T06:11:43.116Z,64.40
2019-02-18T06:14:13.821Z,56.17
2019-02-18T06:16:44.459Z,54.00
2019-02-18T06:19:15.277Z,55.57
2019-02-18T06:21:47.880Z,55.77
2019-02-18T06:24:18.579Z,60.10
2019-02-18T06:26:49.200Z,60.60
2019-02-18T06:29:19.878Z,60.20
2019-02-18T06:31:50.512Z,47.80
2019-02-18T06:34:21.217Z,55.37
2019-02-18T06:36:51.840Z,58.67
2019-02-18T06:39:22.527Z,50.97
2019-02-18T06:41:53.183Z,58.67
2019-02-18T06:44:33.402Z,58.37
2019-02-18T06:47:11.144Z,60.43
2019-02-18T06:49:41.834Z,53.53
2019-02-18T06:52:12.576Z,54.73
2019-02-18T06:54:45.012Z,53.97
2019-02-18T06:57:26.833Z,53.83
2019-02-18T07:00:01.050Z,55.37
2019-02-18T07:02:55.596Z,50.23
2019-02-18T07:05:44.110Z,52.93
2019-02-18T07:08:37.893Z,52.20
2019-02-18T07:11:34.424Z,53.93
2019-02-18T07:14:05.102Z,49.33
2019-02-18T07:16:35.771Z,68.60
2019-02-18T07:19:06.401Z,64.67
2019-02-18T07:21:37.272Z,56.83
2019-02-18T07:24:08.030Z,56.87
2019-02-18T07:26:39.673Z,61.13
2019-02-18T07:29:10.315Z,53.93
2019-02-18T07:31:42.112Z,58.03
2019-02-18T07:34:12.870Z,56.47
2019-02-18T07:36:46.805Z,51.23
2019-02-18T07:39:17.460Z,53.53
2019-02-18T07:41:48.244Z,51.63
2019-02-18T07:44:18.883Z,48.73
2019-02-18T07:46:49.539Z,55.57
2019-02-18T07:49:20.219Z,54.00
2019-02-18T07:51:51.572Z,47.60
2019-02-18T07:54:22.224Z,50.13
2019-02-18T07:56:52.857Z,53.43
2019-02-18T07:59:23.657Z,54.80
2019-02-18T08:01:54.290Z,49.27
2019-02-18T08:04:24.959Z,46.00
2019-02-18T08:06:55.578Z,47.20
2019-02-18T08:09:26.228Z,36.37
2019-02-18T08:11:56.918Z,31.10
2019-02-18T08:14:27.603Z,30.67
2019-02-18T08:16:58.313Z,34.07
2019-02-18T08:19:28.962Z,32.13
2019-02-18T08:21:59.625Z,28.87
2019-02-18T08:24:30.387Z,32.07
2019-02-18T08:27:01.070Z,32.53
2019-02-18T08:29:31.691Z,29.80
2019-02-18T08:32:02.377Z,33.03
2019-02-18T08:34:33.023Z,29.10
2019-02-18T08:37:03.691Z,26.77
2019-02-18T08:39:34.310Z,27.70
2019-02-18T08:42:05.014Z,28.33
2019-02-18T08:44:35.663Z,25.67
2019-02-18T08:47:06.352Z,25.67
2019-02-18T08:49:37.050Z,29.40
2019-02-18T08:52:07.724Z,29.13
2019-02-18T08:54:38.837Z,26.10
2019-02-18T08:57:09.517Z,28.90
2019-02-18T08:59:40.211Z,28.53
2019-02-18T09:02:10.814Z,31.40
2019-02-18T09:04:41.457Z,27.30
2019-02-18T09:07:12.087Z,30.10
2019-02-18T09:09:45.118Z,28.80
2019-02-18T09:12:15.802Z,27.83
2019-02-18T09:14:47.056Z,29.50
2019-02-18T09:17:17.686Z,26.23
2019-02-18T09:19:48.550Z,28.27
2019-02-18T09:22:47.170Z,27.33
2019-02-18T09:25:32.799Z,27.63
2019-02-18T09:28:03.541Z,30.07
2019-02-18T09:30:37.329Z,28.93
2019-02-18T09:33:07.975Z,27.87
2019-02-18T09:35:38.610Z,30.53
2019-02-18T09:38:09.449Z,27.33
2019-02-18T09:43:12.517Z,26.80
2019-02-18T09:45:44.797Z,31.83
2019-02-18T09:48:15.590Z,27.40
2019-02-18T09:50:46.762Z,31.53
2019-02-18T09:53:17.442Z,26.93
2019-02-18T09:55:48.717Z,30.10
2019-02-18T09:58:19.431Z,25.97
2019-02-18T10:00:51.588Z,32.17
2019-02-18T10:03:31.601Z,27.73
2019-02-18T10:05:54.630Z,26.47
2019-02-18T10:08:25.306Z,28.60
2019-02-18T10:10:56.453Z,31.87
2019-02-18T10:13:27.163Z,26.83
2019-02-18T10:15:57.825Z,26.70
2019-02-18T10:18:28.451Z,30.80
2019-02-18T10:20:59.161Z,26.50
2019-02-18T10:23:29.801Z,25.73
2019-02-18T10:26:00.472Z,27.83
2019-02-18T10:28:31.148Z,27.07
2019-02-18T10:31:01.823Z,23.83
2019-02-18T10:33:32.549Z,26.57
2019-02-18T10:36:03.268Z,27.03
2019-02-18T10:38:33.987Z,27.20
2019-02-18T10:41:07.181Z,31.10
2019-02-18T10:43:37.070Z,43.20
2019-02-18T10:46:07.768Z,33.57
2019-02-18T10:48:39.256Z,33.00
2019-02-18T10:51:10.014Z,27.77
2019-02-18T10:53:43.031Z,28.20
2019-02-18T10:56:13.786Z,29.67
2019-02-18T10:58:44.495Z,25.63
2019-02-18T11:01:15.116Z,29.50
2019-02-18T11:03:46.967Z,36.90
2019-02-18T11:06:17.675Z,29.20
2019-02-18T11:08:48.691Z,29.90
2019-02-18T11:11:20.080Z,26.80
2019-02-18T11:13:51.304Z,26.77
2019-02-18T11:16:21.975Z,30.43
2019-02-18T11:18:53.806Z,31.33
2019-02-18T11:21:25.426Z,25.83
2019-02-18T11:23:56.108Z,26.97
2019-02-18T11:26:26.784Z,25.17
2019-02-18T11:28:57.474Z,26.70
2019-02-18T11:31:28.436Z,31.90
2019-02-18T11:33:59.097Z,31.53
2019-02-18T11:36:29.779Z,31.90
2019-02-18T11:39:01.799Z,29.43
2019-02-18T11:41:32.627Z,32.20
2019-02-18T11:44:03.561Z,31.73
2019-02-18T11:46:34.264Z,28.37
2019-02-18T11:49:04.951Z,26.33
2019-02-18T11:51:35.575Z,28.50
2019-02-18T11:54:06.262Z,30.50
2019-02-18T11:56:37.370Z,28.73
2019-02-18T11:59:08.184Z,26.60
2019-02-18T12:01:38.986Z,28.23
2019-02-18T12:04:09.668Z,28.47
2019-02-18T12:06:41.207Z,32.30
2019-02-18T12:09:19.410Z,26.00
2019-02-18T12:11:50.069Z,25.37
2019-02-18T12:14:20.736Z,22.17
2019-02-18T12:16:51.416Z,23.63
2019-02-18T12:19:22.114Z,23.90
2019-02-18T12:21:53.622Z,24.93
2019-02-18T12:24:24.307Z,24.80
2019-02-18T12:26:55.447Z,18.10
2019-02-18T12:29:26.881Z,24.27
2019-02-18T12:31:58.325Z,21.07
2019-02-18T12:34:29.042Z,22.67
2019-02-18T12:36:59.716Z,20.93
2019-02-18T12:39:30.385Z,21.23
2019-02-18T12:42:01.099Z,30.40
2019-02-18T12:44:31.760Z,26.47
2019-02-18T12:47:02.415Z,21.73
2019-02-18T12:49:33.441Z,21.20
2019-02-18T12:52:04.078Z,22.17
2019-02-18T12:54:34.766Z,26.37
2019-02-18T12:57:05.481Z,20.07
2019-02-18T12:59:36.298Z,18.00
2019-02-18T13:02:07.377Z,17.77
2019-02-18T13:04:38.346Z,19.10
2019-02-18T13:07:09.029Z,23.03
2019-02-18T13:09:41.051Z,22.07
2019-02-18T13:12:11.702Z,23.20
2019-02-18T13:14:42.505Z,22.07
2019-02-18T13:17:13.184Z,19.20
2019-02-18T13:19:44.429Z,28.27
2019-02-18T13:22:15.324Z,30.13
2019-02-18T13:24:46.504Z,20.90
2019-02-18T13:27:17.271Z,35.17
2019-02-18T13:29:48.008Z,23.33
2019-02-18T13:32:18.783Z,26.33
2019-02-18T13:34:49.403Z,20.37
2019-02-18T13:37:20.097Z,17.23
2019-02-18T13:39:51.336Z,16.87
2019-02-18T13:42:21.985Z,18.77
2019-02-18T13:44:52.645Z,17.33
2019-02-18T13:47:23.499Z,19.23
2019-02-18T13:49:54.167Z,15.37
2019-02-18T13:52:24.961Z,17.47
2019-02-18T13:54:55.678Z,19.77
2019-02-18T13:57:26.373Z,28.57
2019-02-18T13:59:57.325Z,20.07
2019-02-18T14:02:28.158Z,24.30
2019-02-18T14:04:59.219Z,16.53
2019-02-18T14:07:30.134Z,23.50
2019-02-18T14:10:01.058Z,22.73
2019-02-18T14:12:31.715Z,25.97
2019-02-18T14:15:03.163Z,27.50
2019-02-18T14:17:33.821Z,21.63
2019-02-18T14:20:04.732Z,25.67
2019-02-18T14:22:36.320Z,22.90
2019-02-18T14:25:07.712Z,25.37
2019-02-18T14:27:40.424Z,26.53
2019-02-18T14:30:13.314Z,22.07
2019-02-18T14:32:44.071Z,34.30
2019-02-18T14:35:16.301Z,22.30
2019-02-18T14:37:47.102Z,22.50
2019-02-18T14:40:18.403Z,22.17
2019-02-18T14:42:49.840Z,23.57
2019-02-18T14:45:20.775Z,27.97
2019-02-18T14:47:51.465Z,23.43
2019-02-18T14:50:22.820Z,24.27
2019-02-18T14:52:55.996Z,22.63
2019-02-18T14:55:26.677Z,21.80
2019-02-18T14:57:57.345Z,19.87
2019-02-18T15:00:28.124Z,21.17
2019-02-18T15:02:59.634Z,21.80
2019-02-18T15:05:30.971Z,24.90
2019-02-18T15:08:02.172Z,23.10
2019-02-18T15:10:33.490Z,19.43
2019-02-18T15:13:04.526Z,22.67
2019-02-18T15:15:35.302Z,21.47
2019-02-18T15:18:06.653Z,28.30
2019-02-18T15:20:37.299Z,27.00
2019-02-18T15:23:07.420Z,23.73
2019-02-18T15:25:38.201Z,24.73
2019-02-18T15:28:08.960Z,24.13
2019-02-18T15:30:41.104Z,23.10
2019-02-18T15:33:13.097Z,21.67
2019-02-18T15:35:43.931Z,20.40
2019-02-18T15:38:14.775Z,21.97
2019-02-18T15:40:45.503Z,22.00
2019-02-18T15:43:16.416Z,28.10
2019-02-18T15:45:48.354Z,25.87
2019-02-18T15:48:19.145Z,25.27
2019-02-18T15:50:50.034Z,25.10
2019-02-18T15:53:20.834Z,20.40
2019-02-18T15:55:51.636Z,28.37
2019-02-18T15:58:23.076Z,22.93
2019-02-18T16:00:55.701Z,24.77
2019-02-18T16:03:26.393Z,24.23
2019-02-18T16:05:57.233Z,20.23
2019-02-18T16:08:27.918Z,19.10
2019-02-18T16:10:58.610Z,19.53
2019-02-18T16:13:29.458Z,19.00
2019-02-18T16:16:00.143Z,17.73
2019-02-18T16:18:30.896Z,18.33
2019-02-18T16:21:01.618Z,18.80
2019-02-18T16:23:32.745Z,23.13
2019-02-18T16:26:03.447Z,18.77
2019-02-18T16:28:34.125Z,27.77
2019-02-18T16:31:04.942Z,33.47
2019-02-18T16:33:38.688Z,45.30
2019-02-18T16:36:11.799Z,35.43
2019-02-18T16:38:42.656Z,39.90
2019-02-18T16:41:13.314Z,36.27
2019-02-18T16:43:44.156Z,47.10
2019-02-18T16:46:14.911Z,44.73
2019-02-18T16:48:46.983Z,58.93
2019-02-18T16:51:17.906Z,62.43
2019-02-18T16:53:48.755Z,51.77
2019-02-18T16:56:20.089Z,46.07
2019-02-18T16:58:50.883Z,43.43
2019-02-18T17:01:23.479Z,48.17
2019-02-18T17:03:55.208Z,48.63
2019-02-18T17:06:25.908Z,51.07
2019-02-18T17:08:57.056Z,46.87
2019-02-18T17:11:29.453Z,50.93
2019-02-18T17:14:00.441Z,42.67
2019-02-18T17:16:31.447Z,42.03
2019-02-18T17:19:02.220Z,51.30
2019-02-18T17:21:32.965Z,40.33
2019-02-18T17:24:03.671Z,33.57
2019-02-18T17:26:34.469Z,43.77
2019-02-18T17:29:05.338Z,41.07
2019-02-18T17:31:36.016Z,35.47
2019-02-18T17:34:06.709Z,34.17
2019-02-18T17:36:37.686Z,36.00
2019-02-18T17:39:09.439Z,32.27
2019-02-18T17:41:41.162Z,35.03
2019-02-18T17:44:19.814Z,38.80
2019-02-18T17:46:44.239Z,35.20
2019-02-18T17:49:15.866Z,30.23
2019-02-18T17:51:47.223Z,35.03
2019-02-18T17:54:18.592Z,39.07
2019-02-18T17:56:49.352Z,22.33
2019-02-18T17:59:20.368Z,30.43
2019-02-18T18:01:51.425Z,35.30
2019-02-18T18:04:22.197Z,37.87
2019-02-18T18:06:53.433Z,29.80
2019-02-18T18:09:24.153Z,34.93
2019-02-18T18:11:54.876Z,27.10
2019-02-18T18:14:28.632Z,28.70
2019-02-18T18:16:59.444Z,24.67
2019-02-18T18:19:30.604Z,21.20
2019-02-18T18:22:01.635Z,22.63
2019-02-18T18:24:33.049Z,30.83
2019-02-18T18:27:03.806Z,26.63
2019-02-18T18:29:34.619Z,20.47
2019-02-18T18:32:06.259Z,26.70
2019-02-18T18:34:36.902Z,23.13
2019-02-18T18:37:07.739Z,28.50
2019-02-18T18:39:39.312Z,20.13
2019-02-18T18:42:10.055Z,21.90
2019-02-18T18:44:40.855Z,27.83
2019-02-18T18:47:12.566Z,22.17
2019-02-18T18:49:43.327Z,23.27
2019-02-18T18:52:14.256Z,24.80
2019-02-18T18:54:45.821Z,29.20
2019-02-18T18:57:16.775Z,28.23
2019-02-18T18:59:47.533Z,22.70
2019-02-18T19:02:18.421Z,25.53
2019-02-18T19:04:49.166Z,27.70
2019-02-18T19:07:20.518Z,26.73
2019-02-18T19:09:51.677Z,25.07
2019-02-18T19:12:26.804Z,28.73
2019-02-18T19:14:58.207Z,25.77
2019-02-18T19:17:28.909Z,32.93
2019-02-18T19:19:59.597Z,30.73
2019-02-18T19:22:30.683Z,37.37
2019-02-18T19:25:01.501Z,38.33
2019-02-18T19:27:32.219Z,37.17
2019-02-18T19:30:03.277Z,38.57
2019-02-18T19:32:34.025Z,34.50
2019-02-18T19:35:05.670Z,42.47
2019-02-18T19:37:36.411Z,44.27
2019-02-18T19:40:12.204Z,26.97
2019-02-18T19:42:44.485Z,24.97
2019-02-18T19:45:18.549Z,26.27
2019-02-18T19:47:49.375Z,25.60
2019-02-18T19:50:20.470Z,24.43
2019-02-18T19:52:52.549Z,28.03
2019-02-18T19:55:25.389Z,28.77
2019-02-18T19:57:56.003Z,28.33
2019-02-18T20:00:26.779Z,21.67
2019-02-18T20:02:57.517Z,23.37
2019-02-18T20:05:28.280Z,25.60
2019-02-18T20:07:59.098Z,24.67
2019-02-18T20:10:29.849Z,27.47
2019-02-18T20:13:00.542Z,22.57
2019-02-18T20:15:31.352Z,22.57
2019-02-18T20:18:02.087Z,24.87
2019-02-18T20:20:32.764Z,23.93
2019-02-18T20:23:03.474Z,26.57
2019-02-18T20:25:34.942Z,20.33
2019-02-18T20:28:05.725Z,22.00
2019-02-18T20:30:36.452Z,22.73
2019-02-18T20:33:07.317Z,25.50
2019-02-18T20:35:38.195Z,25.37
2019-02-18T20:38:10.284Z,24.50
2019-02-18T20:40:41.040Z,20.27
2019-02-18T20:43:12.705Z,26.70
2019-02-18T20:45:43.921Z,28.37
2019-02-18T20:48:14.680Z,25.13
2019-02-18T20:50:46.034Z,22.40
2019-02-18T20:53:16.846Z,21.30
2019-02-18T20:55:47.800Z,24.97
2019-02-18T20:58:18.703Z,21.07
2019-02-18T21:00:51.216Z,19.10
2019-02-18T21:03:22.280Z,19.60
2019-02-18T21:05:53.263Z,20.70
2019-02-18T21:08:24.149Z,21.03
2019-02-18T21:10:54.891Z,17.70
2019-02-18T21:13:26.108Z,22.47
2019-02-18T21:15:58.266Z,20.77
2019-02-18T21:18:31.653Z,22.97
2019-02-18T21:21:03.300Z,24.10
2019-02-18T21:23:34.020Z,28.70
2019-02-18T21:26:04.702Z,28.97
2019-02-18T21:28:35.734Z,25.23
2019-02-18T21:31:09.603Z,32.20
2019-02-18T21:33:41.462Z,28.07
2019-02-18T21:36:12.172Z,37.23
2019-02-18T21:38:43.336Z,33.47
2019-02-18T21:41:14.194Z,30.27
2019-02-18T21:43:46.144Z,32.27
2019-02-18T21:46:18.190Z,28.07
2019-02-18T21:48:50.518Z,34.73
2019-02-18T21:51:21.822Z,44.67
2019-02-18T21:53:52.711Z,28.20
2019-02-18T21:56:23.446Z,27.53
2019-02-18T21:58:54.201Z,28.27
2019-02-18T22:01:25.723Z,31.70
2019-02-18T22:03:56.979Z,30.63
2019-02-18T22:06:28.245Z,35.50
2019-02-18T22:08:58.975Z,30.43
2019-02-18T22:11:29.874Z,32.43
2019-02-18T22:14:00.541Z,33.87
2019-02-18T22:16:31.648Z,33.83
2019-02-18T22:19:02.466Z,36.80
2019-02-18T22:21:33.578Z,34.07
2019-02-18T22:24:04.370Z,32.53
2019-02-18T22:26:35.188Z,37.37
2019-02-18T22:29:05.937Z,34.43
2019-02-18T22:31:36.589Z,29.17
2019-02-18T22:34:07.778Z,31.23
2019-02-18T22:36:39.139Z,31.53
2019-02-18T22:39:11.010Z,32.97
2019-02-18T22:41:41.741Z,30.43
2019-02-18T22:44:12.393Z,30.90
2019-02-18T22:46:43.054Z,29.40
2019-02-18T22:49:13.789Z,33.13
2019-02-18T22:51:44.855Z,31.70
2019-02-18T22:54:15.795Z,32.77
2019-02-18T22:56:46.689Z,38.67
2019-02-18T22:59:17.440Z,37.43
2019-02-18T23:01:48.665Z,38.70
2019-02-18T23:04:19.678Z,32.73
2019-02-18T23:06:52.230Z,30.97
2019-02-18T23:09:23.153Z,34.30
2019-02-18T23:11:53.980Z,35.23
2019-02-18T23:14:24.920Z,37.60
2019-02-18T23:16:57.409Z,35.47
2019-02-18T23:19:28.175Z,34.57
2019-02-18T23:21:58.899Z,34.30
2019-02-18T23:24:29.620Z,31.50
2019-02-18T23:27:00.413Z,31.77
2019-02-18T23:29:32.444Z,34.23
2019-02-18T23:32:03.289Z,33.97
2019-02-18T23:34:34.318Z,30.87
2019-02-18T23:37:05.310Z,36.83
2019-02-18T23:39:36.968Z,28.93
2019-02-18T23:42:07.664Z,30.87
2019-02-18T23:44:38.487Z,29.87
2019-02-18T23:47:09.133Z,30.97
2019-02-18T23:49:39.806Z,29.67
2019-02-18T23:52:10.500Z,30.50
2019-02-18T23:54:42.430Z,32.50
2019-02-18T23:57:13.442Z,29.43
2019-02-18T23:59:44.096Z,34.00
